»·PEaware :: LN911CM KAPA-KTEX

LN911CM :: KAPA-KTEX

FLIGHT INFORMATION

Flight Status: Arrived
Operator: Privately registered:
Norway
More flights under this callsign
Pilot: Brett L. (10300)
Aircraft: BEECH AIRCRAFT SUPER KING AIR COMMUTER
(BE20)
More flights by this aircraft type
Origin: KAPA Centennial
United States
Destination: KTEX Telluride Regl
United States
More flights between these airports :: More routes between these airports
Route: BAYLR3 BOBBA
File this flight plan on PilotEdge
Remarks: / / ForeFlight Onboard / / FSEconomy / / Childrens Mercy "MEDEVAC"
Altitude:
(Current/Filed)
24,000ft
Speed:
(Current/Filed)
276kts
Departed: 08-Sep-17 12:07 AM
Arrived: 08-Sep-17 12:58 AM
Distance/Time
Traveled:
173nm/0:51
Distance/Time
To Go:
Arrived

Flight Plot

Page will automatically refresh every two minutes.


Map Options




Map Legend


Flown Route
Filed Route
Departure Airport
Arrival Airport
Navaid (VOR, NDB)
Fix

Horizontal Profiles

Position Reports

Time Latitude Longitude Heading Altitude Ground
Speed
08-Sep-17 00:05 39.568802 -104.832128 206 5888ft 0kts
08-Sep-17 00:06 39.568802 -104.832128 206 5888ft 0kts
08-Sep-17 00:07 39.568802 -104.832128 206 5888ft 0kts
08-Sep-17 00:08 39.568802 -104.832128 206 5888ft 0kts
08-Sep-17 00:09 39.568801 -104.832129 206 5888ft 0kts
08-Sep-17 00:10 39.568350 -104.832411 204 5888ft 10kts
08-Sep-17 00:11 39.571107 -104.842219 289 5901ft 123kts
08-Sep-17 00:12 39.585337 -104.893707 287 7939ft 167kts
08-Sep-17 00:13 39.599083 -104.953220 293 10445ft 182kts
08-Sep-17 00:14 39.620472 -105.011010 295 12919ft 174kts
08-Sep-17 00:15 39.641028 -105.066556 296 15414ft 166kts
08-Sep-17 00:16 39.660514 -105.119383 298 17910ft 161kts
08-Sep-17 00:17 39.671699 -105.178129 266 20013ft 182kts
08-Sep-17 00:18 39.655887 -105.244011 255 21746ft 200kts
08-Sep-17 00:19 39.636859 -105.313691 255 23257ft 208kts
08-Sep-17 00:20 39.617188 -105.385822 255 24435ft 225kts
08-Sep-17 00:21 39.593903 -105.471050 254 24489ft 270kts
08-Sep-17 00:22 39.567774 -105.566115 253 24580ft 285kts
08-Sep-17 00:23 39.540679 -105.664330 253 24634ft 291kts
08-Sep-17 00:24 39.513403 -105.762845 253 24648ft 291kts
08-Sep-17 00:25 39.486026 -105.861336 253 24666ft 291kts
08-Sep-17 00:26 39.458467 -105.960119 253 24671ft 291kts
08-Sep-17 00:27 39.430920 -106.058488 252 24685ft 291kts
08-Sep-17 00:28 39.403263 -106.156872 252 24688ft 291kts
08-Sep-17 00:29 39.357689 -106.239203 196 24644ft 305kts
08-Sep-17 00:30 39.276683 -106.209560 156 24574ft 309kts
08-Sep-17 00:31 39.201060 -106.223688 239 24554ft 295kts
08-Sep-17 00:32 39.160900 -106.315645 238 24548ft 295kts
08-Sep-17 00:33 39.114741 -106.403174 238 24527ft 296kts
08-Sep-17 00:34 39.068398 -106.491030 238 24506ft 295kts
08-Sep-17 00:35 39.022334 -106.578529 238 24485ft 295kts
08-Sep-17 00:36 38.976341 -106.665886 238 24468ft 295kts
08-Sep-17 00:37 38.937036 -106.758024 247 24457ft 293kts
08-Sep-17 00:38 38.903935 -106.853508 248 24448ft 292kts
08-Sep-17 00:39 38.880477 -106.921730 247 24447ft 292kts
08-Sep-17 00:40 38.847655 -107.017687 248 24424ft 292kts
08-Sep-17 00:41 38.815060 -107.113078 247 24425ft 292kts
08-Sep-17 00:42 38.782718 -107.208444 248 24422ft 292kts
08-Sep-17 00:43 38.750628 -107.303056 248 23988ft 288kts
08-Sep-17 00:44 38.717887 -107.397261 244 22797ft 288kts
08-Sep-17 00:45 38.679792 -107.486924 239 21594ft 284kts
08-Sep-17 00:46 38.636552 -107.571921 238 20396ft 286kts
08-Sep-17 00:47 38.592665 -107.657090 238 19198ft 287kts
08-Sep-17 00:48 38.548617 -107.742162 235 18301ft 279kts
08-Sep-17 00:49 38.490241 -107.802750 218 18274ft 274kts
08-Sep-17 00:50 38.433336 -107.869488 226 18277ft 281kts
08-Sep-17 00:51 38.369193 -107.927665 214 18028ft 287kts
08-Sep-17 00:52 38.304454 -107.990028 219 17034ft 295kts
08-Sep-17 00:53 38.239518 -108.052928 222 15849ft 292kts
08-Sep-17 00:54 38.179474 -108.120537 222 14345ft 284kts
08-Sep-17 00:55 38.130978 -108.175411 222 13097ft 274kts
08-Sep-17 00:56 38.076371 -108.237216 222 11923ft 243kts
08-Sep-17 00:57 38.014053 -108.212051 131 11894ft 244kts
08-Sep-17 00:58 37.992250 -108.145033 100 11811ft 251kts
08-Sep-17 00:59 37.978281 -108.046084 103 11434ft 235kts
08-Sep-17 01:00 37.969455 -107.979882 106 10361ft 154kts
08-Sep-17 01:01 37.960128 -107.938929 104 9494ft 121kts
08-Sep-17 01:02 37.953570 -107.907567 104 9083ft 18kts

Navigation Log

Ident Type
Flight plan parsing failed, navigation log unavailable